Latest Weather Observations for Central Arnhem Plateau

IDD60801

Issued at 8:31 pm CST Wednesday 10 February 2016 (issued every 30 minutes, with the page automatically refreshed every 10 minutes)

About weather observations | Map of weather stations | Latest weather observations for NT | Other Formats
Station Details ID: 014909 Name: CENTRAL ARNHEM PLATEAU Lat: -13.33 Lon: 133.09 Height: 416.0 m
Data from the previous 72 hours. | See also: Recent months at Central Arnhem Plateau
Date/Time
CST
Temp
°C
App
Temp
°C
Dew
Point
Rel
Hum
%
Delta-T
°C
Wind Press
QNH
hPa
Press
MSL
hPa
Rain
since 9 am
mm
Dir
 
Spd
km/h
Gust
km/h
Spd
kts
Gust
kts
10/08:30pm 24.8 25.9 21.3 81 2.4 N 17 28 9 15 1009.8 1006.8 0.0
10/08:00pm 25.5 26.6 21.2 77 2.9 N 17 24 9 13 1009.4 1006.3 0.0
10/07:30pm 27.9 30.5 21.2 67 4.5 N 9 15 5 8 1008.9 1005.8 0.0
10/07:00pm 28.2 30.0 21.2 65 4.7 ENE 13 19 7 10 1007.9 1004.9 0.0
10/06:30pm 28.8 29.8 21.1 63 5.2 ENE 17 22 9 12 1007.2 1004.1 0.0
10/06:00pm 29.9 30.2 19.6 54 6.9 ESE 17 30 9 16 1007.1 1004.0 0.0
10/05:30pm 33.6 34.6 21.1 48 8.6 WSW 17 24 9 13 1006.1 1003.1 0.0
10/05:00pm 33.6 33.6 19.7 44 9.3 SW 19 26 10 14 1006.1 1003.1 0.0
10/04:30pm 33.6 34.5 20.0 44 9.2 WSW 15 22 8 12 1005.6 1002.6 0.0
10/04:00pm 33.7 34.8 19.7 43 9.4 SW 13 24 7 13 1005.6 1002.6 0.0
10/03:30pm 33.4 33.6 20.2 46 8.9 WSW 19 28 10 15 1005.8 1002.8 0.0
10/03:00pm 32.5 33.2 20.4 49 8.2 WSW 17 28 9 15 1006.1 1003.1 0.0
10/02:30pm 31.9 33.4 22.0 55 6.8 W 17 24 9 13 1006.8 1003.7 0.0
10/02:00pm 32.2 32.4 20.1 48 8.1 W 19 32 10 17 1007.3 1004.3 0.0
10/01:30pm 32.3 33.5 21.5 53 7.4 W 17 22 9 12 1008.1 1005.1 0.0
10/01:00pm 31.8 33.8 22.2 56 6.6 W 15 24 8 13 1008.6 1005.6 0.0
10/12:30pm 31.3 32.8 21.2 55 6.9 WSW 15 24 8 13 1009.2 1006.1 0.0
10/12:00pm 31.1 32.7 22.1 58 6.2 WSW 17 26 9 14 1009.5 1006.5 0.0
10/11:30am 30.5 31.6 21.3 58 6.3 W 17 26 9 14 1009.9 1006.9 0.0
10/11:00am 29.4 30.1 20.5 58 6.0 W 17 24 9 13 1010.1 1007.1 0.0
10/10:30am 29.1 30.1 21.1 62 5.4 W 17 24 9 13 1010.2 1007.2 0.0
10/10:00am 28.2 29.2 21.0 65 4.9 W 17 22 9 12 1010.6 1007.6 0.0
10/09:30am 27.8 28.8 21.1 67 4.5 W 17 26 9 14 1010.9 1007.9 0.0
10/09:00am 27.1 27.6 21.2 70 4.0 W 20 28 11 15 1010.8 1007.8 0.2
10/08:30am 26.3 26.6 20.4 70 3.9 WNW 19 26 10 14 1010.7 1007.7 0.2
10/08:00am 25.9 26.1 20.5 72 3.6 W 20 30 11 16 1010.4 1007.4 0.2
10/07:30am 25.2 26.5 20.9 77 2.9 WNW 15 20 8 11 1010.1 1007.1 0.2
10/07:00am 24.2 26.7 21.1 83 2.1 WNW 9 13 5 7 1009.8 1006.8 0.2
10/06:30am 24.0 25.8 21.1 84 1.9 WNW 13 20 7 11 1009.5 1006.5 0.2
10/06:00am 24.0 26.1 20.9 83 2.1 WNW 11 15 6 8 1009.0 1005.9 0.2
10/05:30am 24.1 26.6 21.0 83 2.1 NW 9 13 5 7 1008.5 1005.5 0.2
10/05:00am 24.3 26.4 21.0 82 2.2 WNW 11 15 6 8 1008.3 1005.3 0.2
10/04:30am 24.3 26.8 21.0 82 2.2 WNW 9 15 5 8 1008.1 1005.1 0.2
10/04:00am 24.3 26.1 21.2 83 2.1 WNW 13 17 7 9 1008.0 1005.0 0.2
10/03:30am 24.3 26.1 21.2 83 2.1 W 13 19 7 10 1008.0 1005.0 0.2
10/03:00am 24.4 26.6 21.1 82 2.2 WNW 11 15 6 8 1008.3 1005.3 0.2
10/02:30am 24.4 27.2 21.5 84 2.0 WNW 9 13 5 7 1008.6 1005.6 0.2
10/02:00am 24.3 26.6 21.4 84 1.9 WNW 11 17 6 9 1008.9 1005.8 0.2
10/01:30am 24.3 26.2 21.4 84 1.9 WNW 13 19 7 10 1009.3 1006.2 0.2
10/01:00am 24.4 26.3 21.3 83 2.1 WNW 13 20 7 11 1009.7 1006.7 0.2
10/12:30am 24.6 26.1 21.3 82 2.2 WNW 15 20 8 11 1010.1 1007.1 0.2
10/12:00am 24.7 27.4 21.4 82 2.2 NW 9 15 5 8 1010.5 1007.5 0.2
 
Date/Time
CST
Temp
°C
App
Temp
°C
Dew
Point
Rel
Hum
%
Delta-T
°C
Wind Press
QNH
hPa
Press
MSL
hPa
Rain
since 9 am
mm
Dir
 
Spd
km/h
Gust
km/h
Spd
kts
Gust
kts
09/11:30pm 24.6 26.4 21.1 81 2.3 NNW 13 20 7 11 1010.9 1007.9 0.2
09/11:00pm 24.8 26.6 21.1 80 2.5 NW 13 19 7 10 1011.1 1008.1 0.2
09/10:30pm 25.0 26.4 21.1 79 2.6 NW 15 24 8 13 1011.2 1008.2 0.2
09/10:00pm 25.9 29.1 21.6 77 2.9 NNW 7 11 4 6 1011.4 1008.3 0.2
09/09:30pm 26.4 30.7 21.2 73 3.5 CALM 0 0 0 0 1010.0 1007.0 0.2
09/09:00pm 26.1 29.0 21.1 74 3.4 NW 7 11 4 6 1009.9 1006.9 0.2
09/08:30pm 25.5 28.7 21.6 79 2.6 NW 7 9 4 5 1010.1 1007.1 0.2
09/08:00pm 25.6 30.3 21.9 80 2.5 CALM 0 0 0 0 1009.6 1006.6 0.2
09/07:30pm 25.3 28.5 21.6 80 2.5 WNW 7 9 4 5 1009.1 1006.0 0.2
09/07:00pm 25.4 27.9 21.1 77 2.9 WNW 9 13 5 7 1008.7 1005.7 0.2
09/06:30pm 24.4 25.4 21.1 82 2.2 NW 17 22 9 12 1008.5 1005.5 0.2
09/06:00pm 23.9 24.1 20.6 82 2.2 NW 20 28 11 15 1008.5 1005.5 0.2
09/05:30pm 25.4 26.7 21.7 80 2.5 NW 17 19 9 10 1008.2 1005.2 0.2
09/05:00pm 28.1 27.8 19.1 58 5.9 S 19 24 10 13 1007.9 1004.9 0.0
09/04:30pm 33.1 33.9 19.9 45 8.9 WNW 15 20 8 11 1007.3 1004.3 0.0
09/04:00pm 34.1 36.3 21.9 49 8.4 WNW 13 20 7 11 1007.6 1004.6 0.0
09/03:30pm 33.5 35.8 22.0 51 8.0 WNW 13 20 7 11 1007.8 1004.8 0.0
09/03:00pm 32.3 33.8 20.5 49 8.0 W 13 20 7 11 1008.4 1005.4 0.0
09/02:30pm 33.7 36.6 21.8 49 8.2 NW 9 19 5 10 1008.9 1005.8 0.0
09/02:00pm 33.0 34.8 21.2 50 8.1 WNW 13 19 7 10 1009.3 1006.2 0.0
09/01:30pm 32.3 34.0 20.2 48 8.2 WNW 11 19 6 10 1009.7 1006.7 0.0
09/01:00pm 32.4 35.5 22.2 55 7.1 W 9 20 5 11 1010.1 1007.1 0.0
09/12:30pm 31.3 32.8 21.2 55 6.9 WNW 15 20 8 11 1010.5 1007.5 0.0
09/12:00pm 30.9 32.0 20.5 54 7.0 WNW 15 22 8 12 1011.0 1008.0 0.0
09/11:30am 29.7 29.9 19.4 54 6.8 WNW 17 22 9 12 1011.4 1008.3 0.0
09/11:00am 30.0 30.9 20.8 57 6.2 WNW 17 24 9 13 1011.7 1008.7 0.0
09/10:30am 29.5 30.4 20.9 60 5.8 W 17 22 9 12 1012.0 1009.0 0.0
09/10:00am 28.7 29.3 20.2 60 5.7 W 17 24 9 13 1012.2 1009.2 0.0
09/09:30am 28.4 29.7 20.9 64 5.1 WNW 15 19 8 10 1012.3 1009.3 0.0
09/09:00am 27.6 28.7 20.4 65 4.8 WNW 15 20 8 11 1012.2 1009.2 0.0
09/08:30am 26.9 27.9 20.3 67 4.4 W 15 20 8 11 1012.0 1009.0 0.0
09/08:00am 26.1 27.1 20.2 70 3.9 W 15 22 8 12 1011.7 1008.7 0.0
09/07:30am 25.3 26.9 20.8 76 3.0 WNW 13 17 7 9 1011.4 1008.3 0.0
09/07:00am 24.6 26.4 21.1 81 2.3 WNW 13 19 7 10 1011.1 1008.1 0.0
09/06:30am 24.5 26.7 21.2 82 2.2 WNW 11 15 6 8 1010.7 1007.7 0.0
09/06:00am 24.7 27.2 21.0 80 2.5 NW 9 15 5 8 1010.2 1007.2 0.0
09/05:30am 24.7 26.5 21.2 81 2.3 NW 13 17 7 9 1010.1 1007.1 0.0
09/05:00am 24.8 26.6 21.1 80 2.5 NW 13 17 7 9 1009.9 1006.9 0.0
09/04:30am 24.9 26.7 21.2 80 2.5 NW 13 17 7 9 1009.5 1006.5 0.0
09/04:00am 25.0 26.8 21.1 79 2.6 WNW 13 17 7 9 1009.5 1006.5 0.0
09/03:30am 25.3 27.1 21.2 78 2.8 WNW 13 17 7 9 1009.5 1006.5 0.0
09/03:00am 25.4 27.3 21.3 78 2.8 NW 13 15 7 8 1009.6 1006.6 0.0
09/02:30am 25.6 27.5 21.3 77 2.9 WNW 13 19 7 10 1009.7 1006.7 0.0
09/02:00am 25.7 27.6 21.4 77 2.9 NW 13 17 7 9 1009.9 1006.9 0.0
09/01:30am 25.8 28.3 21.7 78 2.8 WNW 11 15 6 8 1010.2 1007.2 0.0
09/01:00am 26.0 27.6 21.4 76 3.1 NW 15 20 8 11 1010.6 1007.6 0.0
09/12:30am 26.2 27.9 21.6 76 3.1 NW 15 20 8 11 1010.9 1007.9 0.0
09/12:00am 26.4 27.9 21.2 73 3.5 NW 15 19 8 10 1011.2 1008.2 0.0
 
Date/Time
CST
Temp
°C
App
Temp
°C
Dew
Point
Rel
Hum
%
Delta-T
°C
Wind Press
QNH
hPa
Press
MSL
hPa
Rain
since 9 am
mm
Dir
 
Spd
km/h
Gust
km/h
Spd
kts
Gust
kts
08/11:30pm 26.9 27.9 21.0 70 4.0 NW 17 26 9 14 1011.4 1008.3 0.0
08/11:00pm 27.2 28.8 20.8 68 4.3 WNW 13 19 7 10 1011.4 1008.3 0.0
08/10:30pm 27.6 29.3 20.9 67 4.5 WNW 13 20 7 11 1011.4 1008.3 0.0
08/10:00pm 28.5 29.9 21.0 64 5.1 NW 15 22 8 12 1011.0 1008.0 0.0
08/09:30pm 29.5 30.8 20.1 57 6.3 NW 13 19 7 10 1010.7 1007.7 0.0
08/09:00pm 30.0 31.3 19.4 53 7.0 WNW 11 13 6 7 1010.3 1007.3 0.0
08/08:30pm 30.2 31.5 19.3 52 7.2 W 11 15 6 8 1010.1 1007.1 0.0
08/08:00pm 30.5 31.2 18.9 50 7.6 WNW 13 17 7 9 1009.7 1006.7 0.0
08/07:30pm 30.9 32.0 18.9 48 7.9 W 11 17 6 9 1009.6 1006.6 0.0
08/07:00pm 31.2 32.3 18.9 48 8.1 NW 11 15 6 8 1009.4 1006.3 0.0
08/06:30pm 32.0 32.7 18.9 45 8.7 W 13 17 7 9 1009.0 1005.9 0.0
08/06:00pm 33.0 34.3 18.4 42 9.6 WSW 9 15 5 8 1008.6 1005.6 0.0
08/05:30pm 33.8 33.3 14.8 32 12.0 S 11 17 6 9 1008.3 1005.3 0.0
08/05:00pm 33.8 33.3 14.8 32 11.9 E 11 22 6 12 1008.1 1005.1 0.0
08/04:30pm 34.2 33.8 14.1 29 12.5 SE 9 28 5 15 1008.0 1005.0 0.0
08/04:00pm 34.0 34.3 15.0 32 12.0 NE 7 13 4 7 1008.2 1005.2 0.0
08/03:30pm 33.9 33.8 14.9 32 12.0 E 9 17 5 9 1008.5 1005.5 0.0
08/03:00pm 33.2 32.8 15.2 33 11.4 SE 11 15 6 8 1009.0 1005.9 0.0
08/02:30pm 33.0 34.2 15.9 35 10.9 SW 4 7 2 4 1009.4 1006.3 0.0
08/02:00pm 33.1 32.9 14.7 33 11.5 ESE 9 17 5 9 1009.8 1006.8 0.0
08/01:30pm 33.2 33.8 15.2 33 11.4 SSW 6 11 3 6 1010.1 1007.1 0.0
08/01:00pm 32.0 33.6 17.9 43 9.2 NW 6 11 3 6 1010.5 1007.5 0.0
08/12:30pm 32.0 33.5 17.5 42 9.4 NNW 6 11 3 6 1011.1 1008.1 0.0
08/12:00pm 31.2 33.1 18.5 46 8.3 SW 6 13 3 7 1011.5 1008.4 0.0
08/11:30am 30.8 32.4 17.8 45 8.4 WNW 6 11 3 6 1011.5 1008.4 0.0
08/11:00am 30.2 31.8 19.9 54 6.9 WNW 11 19 6 10 1012.0 1009.0 0.0
08/10:30am 29.5 30.9 19.5 55 6.6 W 11 17 6 9 1012.1 1009.1 0.0
08/10:00am 28.7 30.1 20.4 60 5.6 WNW 13 17 7 9 1012.3 1009.3 0.0
08/09:30am 28.1 29.8 20.9 65 4.8 WNW 13 17 7 9 1012.3 1009.3 0.0
08/09:00am 27.3 28.7 20.4 66 4.6 W 13 17 7 9 1012.2 1009.2 0.0
08/08:30am 26.5 28.1 20.8 71 3.8 W 13 17 7 9 1012.1 1009.1 0.0
08/08:00am 25.8 28.0 21.2 76 3.1 WNW 11 15 6 8 1012.1 1009.1 0.0
08/07:30am 24.9 29.1 21.0 79 2.6 CALM 0 0 0 0 1011.8 1008.8 0.0
08/07:00am 23.5 27.6 20.8 85 1.8 CALM 0 0 0 0 1011.5 1008.4 0.0
08/06:30am 23.1 26.9 20.2 84 1.9 CALM 0 0 0 0 1011.2 1008.2 0.0
08/06:00am 23.4 27.3 20.3 83 2.0 CALM 0 0 0 0 1011.0 1008.0 0.0
08/05:30am 23.4 27.2 20.2 82 2.1 CALM 0 0 0 0 1010.8 1007.8 0.0
08/05:00am 23.2 24.6 19.6 80 2.3 NE 11 22 6 12 1010.7 1007.7 0.0
08/04:30am 23.8 27.8 20.5 82 2.2 CALM 0 0 0 0 1010.3 1007.3 0.0
08/04:00am 24.2 26.8 20.5 80 2.4 NW 7 11 4 6 1010.3 1007.3 0.0
08/03:30am 24.0 26.3 20.7 82 2.2 WNW 9 9 5 5 1010.4 1007.4 0.0
08/03:00am 24.0 26.6 20.5 81 2.3 NW 7 9 4 5 1010.4 1007.4 0.0
08/02:30am 24.1 27.3 20.6 81 2.3 NNW 4 7 2 4 1010.6 1007.6 0.0
08/02:00am 24.1 28.2 20.8 82 2.2 CALM 0 4 0 2 1010.9 1007.9 0.0
08/01:30am 24.7 28.9 21.0 80 2.5 CALM 0 0 0 0 1011.2 1008.2 0.0
08/01:00am 24.7 27.8 21.0 80 2.5 NW 6 7 3 4 1011.8 1008.8 0.0
08/12:30am 25.1 29.5 21.4 80 2.5 CALM 0 2 0 1 1012.0 1009.0 0.0
08/12:00am 25.1 28.2 21.0 78 2.7 WSW 6 7 3 4 1012.1 1009.1 0.0
 
Date/Time
CST
Temp
°C
App
Temp
°C
Dew
Point
Rel
Hum
%
Delta-T
°C
Wind Press
QNH
hPa
Press
MSL
hPa
Rain
since 9 am
mm
Dir
 
Spd
km/h
Gust
km/h
Spd
kts
Gust
kts
07/11:30pm 25.1 29.1 20.6 76 3.0 CALM 0 0 0 0 1012.3 1009.3 0.0
07/11:00pm 25.4 28.3 20.6 75 3.2 WNW 6 7 3 4 1012.6 1009.6 0.0
07/10:30pm 25.5 28.0 20.3 73 3.4 W 7 9 4 5 1012.4 1009.4 0.0
07/10:00pm 25.6 28.5 20.6 74 3.3 WNW 6 7 3 4 1012.1 1009.1 0.0
07/09:30pm 25.7 28.1 20.0 71 3.8 NNW 7 11 4 6 1011.8 1008.8 0.0
07/09:00pm 26.4 28.9 20.3 69 4.1 NNW 7 13 4 7 1011.2 1008.2 0.0

Other Formats:

Comma delimited format used in spreadsheet applications
http://www.bom.gov.au/fwo/IDD60801/IDD60801.94141.axf

JavaScript Object Notation format (JSON) in row-major order
http://www.bom.gov.au/fwo/IDD60801/IDD60801.94141.json